createdAt,value
2022-11-30T00:03:54.465Z,29.50
2022-11-30T00:08:58.801Z,31.20
2022-11-30T00:14:01.806Z,32.90
2022-11-30T00:19:04.915Z,30.20
2022-11-30T00:24:08.126Z,31.60
2022-11-30T00:29:11.235Z,27.90
2022-11-30T00:34:14.140Z,29.90
2022-11-30T00:39:17.046Z,34.10
2022-11-30T00:44:19.947Z,29.80
2022-11-30T00:49:22.851Z,34.70
2022-11-30T00:54:25.861Z,35.30
2022-11-30T00:59:28.763Z,31.50
2022-11-30T01:04:31.665Z,32.50
2022-11-30T01:09:34.570Z,37.10
2022-11-30T01:14:37.577Z,34.60
2022-11-30T01:19:40.684Z,33.60
2022-11-30T01:24:43.727Z,27.60
2022-11-30T01:29:46.903Z,34.40
2022-11-30T01:34:49.913Z,32.10
2022-11-30T01:39:53.022Z,26.40
2022-11-30T01:44:58.385Z,29.00
2022-11-30T01:50:08.744Z,29.90
2022-11-30T01:55:24.362Z,33.80
2022-11-30T02:00:28.155Z,30.30
2022-11-30T02:05:33.245Z,21.40
2022-11-30T02:10:40.341Z,27.60
2022-11-30T02:16:18.885Z,33.90
2022-11-30T02:21:46.061Z,27.20
2022-11-30T02:27:19.992Z,26.50
2022-11-30T02:32:31.801Z,26.90
2022-11-30T02:37:37.466Z,33.40
2022-11-30T02:42:40.482Z,23.50
2022-11-30T02:47:58.034Z,28.80
2022-11-30T02:53:01.938Z,30.40
2022-11-30T02:58:05.639Z,31.40
2022-11-30T03:03:08.724Z,29.00
2022-11-30T03:08:11.791Z,29.10
2022-11-30T03:13:14.996Z,26.10
2022-11-30T03:18:18.003Z,27.50
2022-11-30T03:23:21.114Z,32.30
2022-11-30T03:28:24.017Z,28.50
2022-11-30T03:33:27.229Z,27.50
2022-11-30T03:38:30.737Z,23.40
2022-11-30T03:43:34.493Z,26.30
2022-11-30T03:48:37.584Z,27.40
2022-11-30T03:53:41.185Z,28.90
2022-11-30T03:58:44.306Z,27.30
2022-11-30T04:03:47.313Z,29.10
2022-11-30T04:08:50.422Z,27.50
2022-11-30T04:13:53.325Z,27.50
2022-11-30T04:18:56.332Z,32.10
2022-11-30T04:23:59.340Z,32.10
2022-11-30T04:29:04.499Z,34.60
2022-11-30T04:34:07.910Z,32.60
2022-11-30T04:39:11.020Z,28.90
2022-11-30T04:44:14.026Z,42.40
2022-11-30T04:49:17.236Z,32.00
2022-11-30T04:54:20.141Z,26.80
2022-11-30T04:59:23.147Z,26.40
2022-11-30T05:04:26.293Z,31.00
2022-11-30T05:09:29.467Z,28.50
2022-11-30T05:14:32.475Z,34.30
2022-11-30T05:19:35.584Z,29.40
2022-11-30T05:24:38.690Z,28.40
2022-11-30T05:29:41.594Z,28.30
2022-11-30T05:34:51.165Z,29.80
2022-11-30T05:39:54.979Z,31.30
2022-11-30T05:44:58.087Z,31.70
2022-11-30T05:50:01.199Z,27.40
2022-11-30T05:55:04.895Z,31.10
2022-11-30T06:00:09.632Z,31.40
2022-11-30T06:05:13.799Z,31.10
2022-11-30T06:10:16.907Z,32.60
2022-11-30T06:15:19.921Z,34.00
2022-11-30T06:20:22.819Z,30.90
2022-11-30T06:25:27.162Z,29.30
2022-11-30T06:30:30.274Z,33.30
2022-11-30T06:35:33.477Z,30.40
2022-11-30T06:40:36.995Z,28.50
2022-11-30T06:45:40.234Z,32.00
2022-11-30T06:50:48.456Z,29.90
2022-11-30T06:55:53.368Z,33.90
2022-11-30T07:00:56.534Z,29.20
2022-11-30T07:05:59.684Z,30.30
2022-11-30T07:11:03.131Z,33.20
2022-11-30T07:16:08.684Z,36.60
2022-11-30T07:21:12.355Z,33.50
2022-11-30T07:26:15.420Z,32.30
2022-11-30T07:31:20.492Z,32.60
2022-11-30T07:36:25.998Z,31.00
2022-11-30T07:41:29.073Z,29.90
2022-11-30T07:46:33.758Z,33.40
2022-11-30T07:51:37.590Z,28.60
2022-11-30T07:56:40.629Z,32.10
2022-11-30T08:01:43.938Z,31.10
2022-11-30T08:06:47.033Z,33.30
2022-11-30T08:11:50.366Z,31.80
2022-11-30T08:16:53.430Z,33.10
2022-11-30T08:21:56.678Z,32.50
2022-11-30T08:26:59.891Z,33.80
2022-11-30T08:32:02.898Z,28.70
2022-11-30T08:37:06.011Z,35.60
2022-11-30T08:42:09.119Z,32.50
2022-11-30T08:47:12.191Z,35.80
2022-11-30T08:52:17.988Z,31.90
2022-11-30T08:57:22.134Z,37.60
2022-11-30T09:02:25.327Z,33.40
2022-11-30T09:07:28.631Z,34.00
2022-11-30T09:12:35.959Z,32.80
2022-11-30T09:17:39.186Z,37.20
2022-11-30T09:22:42.800Z,33.00
2022-11-30T09:27:45.920Z,28.30
2022-11-30T09:32:49.012Z,32.50
2022-11-30T09:37:53.334Z,33.10
2022-11-30T09:43:21.036Z,34.00
2022-11-30T09:48:59.774Z,33.00
2022-11-30T09:54:09.166Z,30.80
2022-11-30T09:59:29.673Z,29.50
2022-11-30T10:04:32.662Z,29.00
2022-11-30T10:10:31.022Z,28.70
2022-11-30T10:16:08.143Z,31.70
2022-11-30T10:21:38.825Z,37.80
2022-11-30T10:26:50.638Z,34.90
2022-11-30T10:31:58.107Z,34.30
2022-11-30T10:37:13.241Z,32.60
2022-11-30T10:42:26.386Z,31.10
2022-11-30T10:47:37.068Z,28.90
2022-11-30T10:52:49.085Z,41.00
2022-11-30T10:58:02.992Z,41.20
2022-11-30T11:03:26.639Z,40.10
2022-11-30T11:08:29.646Z,29.90
2022-11-30T11:13:43.621Z,30.30
2022-11-30T11:18:55.445Z,29.00
2022-11-30T11:23:58.936Z,29.00
2022-11-30T11:29:02.779Z,24.20
2022-11-30T11:34:22.872Z,24.40
2022-11-30T11:39:26.990Z,26.50
2022-11-30T11:44:30.420Z,34.10
2022-11-30T11:49:36.815Z,31.00
2022-11-30T11:54:45.133Z,26.50
2022-11-30T12:00:16.276Z,32.90
2022-11-30T12:05:27.396Z,23.60
2022-11-30T12:16:04.543Z,36.90
2022-11-30T12:21:10.617Z,27.50
2022-11-30T12:26:44.765Z,40.00
2022-11-30T12:31:57.283Z,32.90
2022-11-30T12:37:22.816Z,29.50
2022-11-30T12:42:41.287Z,32.00
2022-11-30T12:48:02.518Z,26.50
2022-11-30T12:53:05.628Z,29.80
2022-11-30T12:58:33.311Z,32.30
2022-11-30T13:04:07.920Z,30.40
2022-11-30T13:09:20.491Z,34.40
2022-11-30T13:14:25.852Z,35.60
2022-11-30T13:19:55.174Z,29.90
2022-11-30T13:25:11.698Z,32.80
2022-11-30T13:30:28.088Z,28.50
2022-11-30T13:35:30.897Z,33.50
2022-11-30T13:40:33.928Z,32.50
2022-11-30T13:45:36.934Z,23.80
2022-11-30T13:50:41.276Z,30.50
2022-11-30T13:56:00.259Z,28.50
2022-11-30T14:01:26.711Z,27.20
2022-11-30T14:06:41.696Z,30.50
2022-11-30T14:11:45.809Z,26.40
2022-11-30T14:16:49.513Z,26.10
2022-11-30T14:21:52.555Z,27.00
2022-11-30T14:26:55.973Z,27.80
2022-11-30T14:32:07.690Z,25.80
2022-11-30T14:37:28.107Z,27.60
2022-11-30T14:42:33.359Z,30.50
2022-11-30T14:47:36.777Z,26.80
2022-11-30T14:52:46.442Z,34.30
2022-11-30T14:58:05.460Z,40.00
2022-11-30T15:03:27.474Z,45.90
2022-11-30T15:08:37.923Z,48.40
2022-11-30T15:18:46.648Z,48.90
2022-11-30T15:23:54.256Z,60.70
2022-11-30T15:29:03.292Z,51.00
2022-11-30T15:34:07.422Z,49.10
2022-11-30T15:39:18.717Z,42.20
2022-11-30T15:44:39.136Z,37.30
2022-11-30T15:49:53.272Z,35.00
2022-11-30T15:55:03.803Z,34.30
2022-11-30T16:00:09.178Z,31.40
2022-11-30T16:05:14.442Z,33.00
2022-11-30T16:10:33.079Z,27.60
2022-11-30T16:15:37.005Z,31.00
2022-11-30T16:20:45.348Z,25.90
2022-11-30T16:25:50.194Z,26.00
2022-11-30T16:30:59.877Z,27.40
2022-11-30T16:36:07.801Z,26.60
2022-11-30T16:41:15.490Z,29.00
2022-11-30T16:46:24.249Z,26.30
2022-11-30T16:51:31.634Z,26.00
2022-11-30T16:56:34.758Z,22.10
2022-11-30T17:01:44.951Z,25.50
2022-11-30T17:06:50.713Z,25.10
2022-11-30T17:11:54.726Z,26.40
2022-11-30T17:16:57.911Z,23.80
2022-11-30T17:22:01.045Z,24.80
2022-11-30T17:27:05.896Z,20.00
2022-11-30T17:32:08.903Z,23.00
2022-11-30T17:37:13.961Z,22.30
2022-11-30T17:42:16.959Z,21.10
2022-11-30T17:47:22.329Z,21.90
2022-11-30T17:52:25.543Z,23.90
2022-11-30T17:57:28.749Z,18.80
2022-11-30T18:02:31.897Z,23.00
2022-11-30T18:07:36.124Z,23.10
2022-11-30T18:12:39.305Z,17.80
2022-11-30T18:17:42.830Z,19.60
2022-11-30T18:22:46.027Z,18.40
2022-11-30T18:27:54.026Z,20.00
2022-11-30T18:32:57.164Z,17.50
2022-11-30T18:38:00.274Z,14.60
2022-11-30T18:43:03.384Z,17.60
2022-11-30T18:48:06.795Z,14.60
2022-11-30T18:53:13.788Z,16.70
2022-11-30T18:58:19.876Z,15.60
2022-11-30T19:03:23.383Z,15.40
2022-11-30T19:08:27.376Z,17.20
2022-11-30T19:13:32.107Z,14.40
2022-11-30T19:18:37.574Z,15.20
2022-11-30T19:23:42.316Z,14.20
2022-11-30T19:28:47.180Z,14.60
2022-11-30T19:33:54.378Z,15.90
2022-11-30T19:39:00.608Z,16.60
2022-11-30T19:44:04.830Z,14.70
2022-11-30T19:49:10.654Z,16.50
2022-11-30T19:54:14.319Z,17.20
2022-11-30T19:59:18.514Z,17.10
2022-11-30T20:04:22.677Z,15.60
2022-11-30T20:09:26.628Z,14.50
2022-11-30T20:14:30.188Z,13.60
2022-11-30T20:19:33.457Z,14.10
2022-11-30T20:24:36.907Z,13.40
2022-11-30T20:29:40.405Z,13.20
2022-11-30T20:34:44.953Z,11.90
2022-11-30T20:39:48.162Z,13.20
2022-11-30T20:44:51.510Z,12.90
2022-11-30T20:49:54.690Z,12.70
2022-11-30T20:54:57.810Z,15.50
2022-11-30T21:00:00.907Z,13.40
2022-11-30T21:05:04.125Z,15.70
2022-11-30T21:10:08.049Z,12.30
2022-11-30T21:15:11.360Z,10.40
2022-11-30T21:20:14.365Z,12.20
2022-11-30T21:25:17.968Z,11.70
2022-11-30T21:30:20.994Z,11.60
2022-11-30T21:35:23.994Z,12.50
2022-11-30T21:40:27.005Z,11.20
2022-11-30T21:45:30.013Z,11.80
2022-11-30T21:50:33.015Z,11.80
2022-11-30T21:55:36.734Z,19.80
2022-11-30T22:00:39.640Z,13.20
2022-11-30T22:05:42.647Z,12.10
2022-11-30T22:10:45.558Z,13.40
2022-11-30T22:15:48.680Z,14.70
2022-11-30T22:20:52.073Z,12.70
2022-11-30T22:25:55.085Z,12.00
2022-11-30T22:31:03.350Z,12.00
2022-11-30T22:36:14.818Z,13.30
2022-11-30T22:41:18.027Z,10.10
2022-11-30T22:46:25.162Z,10.20
2022-11-30T22:51:29.777Z,12.60
2022-11-30T22:56:35.364Z,11.90
2022-11-30T23:01:42.758Z,11.50
2022-11-30T23:06:48.289Z,13.60
2022-11-30T23:11:51.938Z,12.40
2022-11-30T23:16:55.148Z,11.40
2022-11-30T23:21:58.154Z,12.60
2022-11-30T23:27:01.059Z,13.00
2022-11-30T23:32:04.759Z,13.50
2022-11-30T23:37:08.095Z,12.60
2022-11-30T23:42:10.940Z,12.50
2022-11-30T23:47:18.146Z,11.50
2022-11-30T23:52:21.721Z,10.70
2022-11-30T23:57:25.037Z,11.10
